ADDS METAR Data INFO
IDs: Format: Raw Decoded Include TAF

Data at: 1611 UTC 14 Aug 2018

KBJC 141547Z 33005KT 7SM SCT010 22/12 A3018
KBJC 141447Z 32003KT 7SM SCT003 18/15 A3018
KBJC 141435Z 35004KT 7SM SCT003 18/15 A3018
KBJC 141347Z 33004KT 3SM BR OVC003 17/15 A3017
KBJC 141247Z 32003KT 3SM BR BKN004 BKN200 15/15 A3015
KBJC 141242Z COR 00000KT 4SM BR BKN004 BKN200 15/14 A3015
KBJC 141200Z 26004KT 5SM BR SCT003 SCT200 14/13 A3012
KBJC 141159Z AUTO 27004KT 7SM CLR 14/13 A3012 RMK AO2
KBJC 141153Z AUTO 27005KT 7SM CLR 15/13 A3012 RMK AO2
KBJC 141147Z 27004KT 5SM BR SCT200 15/14 A3012
KBJC 141130Z AUTO 30003KT 10SM CLR 16/14 A3012 RMK AO2
KBJC 141112Z AUTO 35006KT 10SM CLR 16/15 A3012 RMK AO2
KBJC 141053Z AUTO 34007KT 10SM CLR 16/14 A3012 RMK AO2
KBJC 141029Z AUTO 34007KT 10SM CLR 17/14 A3012 RMK AO2
KBJC 141011Z AUTO 34012KT 10SM CLR 17/14 A3011 RMK AO2
KBJC 140953Z AUTO 34014KT 10SM CLR 17/13 A3011 RMK AO2
KBJC 140929Z AUTO 34014KT 10SM CLR 17/13 A3011 RMK AO2
KBJC 140912Z AUTO 33015KT 10SM CLR 18/12 A3011 RMK AO2 LTG DSNT N
KBJC 140853Z AUTO 33013KT 10SM CLR 18/11 A3011 RMK AO2
KBJC 140830Z AUTO 34013KT 10SM CLR 18/11 A3011 RMK AO2
KBJC 140812Z AUTO 34014KT 10SM CLR 18/11 A3011 RMK AO2
KBJC 140754Z AUTO 33012KT 10SM CLR 18/10 A3011 RMK AO2
KBJC 140748Z AUTO 33013KT 10SM CLR 19/10 A3011 RMK AO2
KBJC 140730Z AUTO 33014KT 10SM CLR 19/10 A3011 RMK AO2
KBJC 140712Z AUTO 33015KT 10SM CLR 20/10 A3011 RMK AO2
KBJC 140653Z AUTO 33014KT 10SM CLR 20/08 A3011 RMK AO2 LTG DSNT S
KBJC 140630Z AUTO 33014KT 10SM CLR 20/06 A3011 RMK AO2
KBJC 140612Z AUTO 33010KT 10SM CLR 21/04 A3011 RMK AO2
KBJC 140554Z AUTO 32009KT 10SM CLR 22/03 A3012 RMK AO2
KBJC 140548Z AUTO 34009KT 10SM CLR 22/03 A3011 RMK AO2
KBJC 140530Z AUTO 32008KT 10SM CLR 22/03 A3011 RMK AO2
KBJC 140512Z AUTO 32008KT 10SM CLR 22/04 A3011 RMK AO2
KBJC 140453Z AUTO 31006KT 10SM CLR 23/03 A3011 RMK AO2
KBJC 140430Z AUTO 35005KT 10SM CLR 23/03 A3011 RMK AO2
KBJC 140412Z AUTO 35005KT 10SM CLR 23/03 A3011 RMK AO2
KBJC 140345Z 32005KT 10SM SKC 24/04 A3011
KBJC 140245Z 31007KT 10SM FEW120 25/05 A3010
KBJC 140055Z 31007KT 10SM FEW120 28/05 A3007
KBJC 132350Z 08006KT 10SM FEW120 30/00 A3007
KBJC 132245Z 08006KT 10SM FEW120 31/01 A3006
KBJC 132145Z VRB03KT 10SM FEW120 30/02 A3007
KBJC 132053Z VRB06KT 10SM FEW100 29/05 A3008
KBJC 131947Z VRB04KT 10SM FEW100 28/05 A3010
KBJC 131849Z 03005KT 10SM FEW100 27/08 A3011
KBJC 131759Z 04006KT 10SM FEW100 26/08 A3011
KBJC 131655Z 03007KT 10SM SKC 24/07 A3011
KBJC 131629Z 02006KT 10SM SKC 23/05 A3011
KBJC 131547Z 00000KT 10SM SKC 21/05 A3011
KBJC 131447Z 29004KT 10SM SKC 19/07 A3011
KBJC 131347Z 29004KT 7SM SKC 16/08 A3011
KBJC 131247Z 31005KT 7SM SKC 14/08 A3010
KBJC 131154Z AUTO 34007KT 10SM CLR 15/07 A3008 RMK AO2
KBJC 131145Z COR 31003KT 10SM SKC 15/07 A3008
KBJC 131130Z AUTO 33007KT 10SM CLR 15/07 A3008 RMK AO2
KBJC 131112Z AUTO 33004KT 10SM CLR 16/07 A3007 RMK AO2
KBJC 131053Z AUTO 34012KT 10SM CLR 16/07 A3007 RMK AO2
KBJC 131029Z AUTO 32007KT 10SM CLR 16/07 A3007 RMK AO2
KBJC 131012Z AUTO 34012KT 10SM CLR 16/07 A3006 RMK AO2
KBJC 130953Z AUTO 34013KT 10SM CLR 16/06 A3006 RMK AO2
KBJC 130929Z AUTO 33012KT 10SM CLR 16/06 A3006 RMK AO2
KBJC 130912Z AUTO 32009KT 10SM CLR 17/06 A3006 RMK AO2
KBJC 130852Z AUTO 32008KT 10SM CLR 17/05 A3007 RMK AO2
KBJC 130834Z AUTO 34004KT 10SM CLR 17/05 A3007 RMK AO2
KBJC 130811Z AUTO 00000KT 10SM CLR 18/05 A3008 RMK AO2
KBJC 130752Z AUTO 00000KT 10SM CLR 16/06 A3008 RMK AO2
KBJC 130734Z AUTO 00000KT 10SM CLR 18/05 A3008 RMK AO2
KBJC 130711Z AUTO 00000KT 10SM CLR 17/06 A3009 RMK AO2
KBJC 130652Z AUTO 22005KT 10SM CLR 18/07 A3009 RMK AO2
KBJC 130629Z AUTO 20004KT 10SM CLR 18/07 A3011 RMK AO2
KBJC 130612Z AUTO 19006KT 10SM CLR 19/06 A3011 RMK AO2
KBJC 130553Z AUTO 18006KT 10SM CLR 20/06 A3012 RMK AO2
KBJC 130529Z AUTO 18005KT 10SM CLR 20/06 A3012 RMK AO2
KBJC 130511Z AUTO 18007KT 10SM CLR 21/05 A3013 RMK AO2
KBJC 130453Z AUTO 17006KT 10SM CLR 21/05 A3013 RMK AO2
KBJC 130430Z AUTO 15006KT 10SM CLR 22/06 A3013 RMK AO2
KBJC 130412Z AUTO 15007KT 10SM CLR 22/05 A3014 RMK AO2